Time;durP1;ratioP1;P1;durP2;ratioP2;P2;SDS_P1;SDS_P2;PMS_P1;PMS_P2;Temp;Humidity;BMP_temperature;BMP_pressure;BME280_temperature;BME280_humidity;BME280_pressure;Samples;Min_cycle;Max_cycle;Signal;HPM_P1;HPM_P2
2023/01/13 00:02:02;;;;;;;24.33;2.90;;;9.70;99.90;;;;;;5021629;28;20045;-67
2023/01/13 00:04:27;;;;;;;24.30;3.63;;;9.70;99.90;;;;;;5021005;28;20478;-67
2023/01/13 00:06:53;;;;;;;20.92;3.10;;;9.60;99.90;;;;;;5003685;28;20501;-67
2023/01/13 00:09:19;;;;;;;26.42;3.75;;;9.50;99.90;;;;;;5011819;28;20114;-67
2023/01/13 00:11:44;;;;;;;33.40;4.22;;;9.50;99.90;;;;;;5004136;28;20043;-66
2023/01/13 00:14:10;;;;;;;21.02;3.20;;;9.40;99.90;;;;;;5029250;28;20512;-66
2023/01/13 00:16:37;;;;;;;26.10;3.78;;;9.30;99.90;;;;;;5005907;28;20045;-66
2023/01/13 00:19:03;;;;;;;29.67;3.90;;;9.20;99.90;;;;;;5026570;28;20053;-66
2023/01/13 00:21:28;;;;;;;23.20;3.15;;;9.10;99.90;;;;;;5020252;28;20529;-66
2023/01/13 00:23:54;;;;;;;24.40;3.15;;;9.00;99.90;;;;;;5022125;28;20043;-66
2023/01/13 00:26:23;;;;;;;24.75;3.58;;;9.00;99.90;;;;;;5040172;28;20106;-67
2023/01/13 00:28:49;;;;;;;29.60;3.60;;;8.90;22.60;;;;;;5021386;28;20055;-67
2023/01/13 00:31:19;;;;;;;32.72;4.78;;;8.80;1.00;;;;;;5020639;28;20036;-66
2023/01/13 00:33:47;;;;;;;25.33;4.00;;;8.80;1.00;;;;;;5020983;28;20094;-67
2023/01/13 00:36:15;;;;;;;24.90;3.83;;;8.70;1.00;;;;;;5005137;28;20131;-66
2023/01/13 00:38:41;;;;;;;26.33;3.88;;;8.60;1.00;;;;;;5021839;28;20060;-67
2023/01/13 00:41:16;;;;;;;28.10;3.85;;;8.60;1.00;;;;;;5016235;28;20041;-66
2023/01/13 00:43:42;;;;;;;27.92;3.60;;;8.50;6.10;;;;;;5039835;28;20033;-67
2023/01/13 00:46:11;;;;;;;38.67;5.32;;;8.40;1.00;;;;;;5026862;28;20404;-66
2023/01/13 00:48:37;;;;;;;27.58;4.13;;;8.40;30.50;;;;;;5039037;28;20071;-66
2023/01/13 00:51:10;;;;;;;29.88;4.00;;;8.30;1.00;;;;;;5039850;28;20063;-66
2023/01/13 00:53:47;;;;;;;38.73;5.97;;;8.40;68.40;;;;;;5004647;28;20343;-66
2023/01/13 00:56:14;;;;;;;37.70;4.93;;;8.20;86.70;;;;;;5020247;28;20115;-66
2023/01/13 00:58:41;;;;;;;32.85;4.75;;;8.30;97.20;;;;;;5022152;28;20045;-66
2023/01/13 01:01:09;;;;;;;43.53;4.88;;;8.20;22.80;;;;;;5020156;28;20073;-66
2023/01/13 01:03:36;;;;;;;37.53;5.60;;;8.20;43.90;;;;;;5020366;28;20136;-66
2023/01/13 01:06:14;;;;;;;33.72;5.10;;;8.20;1.00;;;;;;5019564;28;20041;-66
2023/01/13 01:08:40;;;;;;;38.85;5.55;;;8.20;1.00;;;;;;5021312;28;20391;-66
2023/01/13 01:11:09;;;;;;;28.67;4.47;;;8.10;29.40;;;;;;5039500;28;20041;-66
2023/01/13 01:13:35;;;;;;;37.50;4.95;;;8.10;48.20;;;;;;5038905;28;20374;-66
2023/01/13 01:16:07;;;;;;;40.45;6.20;;;8.00;1.00;;;;;;5021468;28;20527;-65
2023/01/13 01:18:34;;;;;;;42.72;6.18;;;8.00;1.00;;;;;;5020149;28;20080;-65
2023/01/13 01:21:01;;;;;;;43.22;7.03;;;8.00;1.00;;;;;;5021122;28;20568;-65
2023/01/13 01:23:28;;;;;;;40.17;5.72;;;8.00;17.00;;;;;;5005612;28;20037;-64
2023/01/13 01:25:54;;;;;;;36.80;4.72;;;7.90;23.50;;;;;;5017335;28;20484;-65
2023/01/13 01:28:20;;;;;;;35.15;5.53;;;7.90;7.00;;;;;;5016994;28;20041;-65
2023/01/13 01:30:45;;;;;;;33.15;5.82;;;7.90;1.00;;;;;;5017292;28;20048;-65
2023/01/13 01:33:11;;;;;;;41.88;6.65;;;7.90;1.00;;;;;;5017917;28;20049;-65
2023/01/13 01:35:40;;;;;;;37.10;5.03;;;7.90;1.00;;;;;;5018468;28;20435;-65
2023/01/13 01:38:06;;;;;;;43.63;5.72;;;7.90;1.00;;;;;;5017688;28;20450;-65
2023/01/13 01:40:31;;;;;;;43.78;6.03;;;7.80;1.00;;;;;;5002254;28;20029;-66
2023/01/13 01:45:41;;;;;;;36.17;5.28;;;7.80;1.00;;;;;;5018211;28;20041;-66
2023/01/13 01:48:08;;;;;;;44.45;6.30;;;7.70;1.00;;;;;;5016148;28;21307;-65
2023/01/13 01:50:35;;;;;;;31.33;4.97;;;7.70;1.00;;;;;;4990918;28;20049;-65
2023/01/13 01:53:13;;;;;;;34.88;5.07;;;7.80;1.00;;;;;;5018407;28;20500;-65
2023/01/13 01:55:39;;;;;;;38.13;5.20;;;7.70;1.00;;;;;;5016307;28;20124;-65
2023/01/13 01:58:19;;;;;;;40.88;6.60;;;7.70;1.00;;;;;;5016221;28;20075;-65
2023/01/13 02:00:45;;;;;;;42.60;6.15;;;7.70;1.00;;;;;;5015398;28;20034;-65
2023/01/13 02:03:11;;;;;;;43.50;6.75;;;7.70;1.00;;;;;;5016605;28;20041;-64
2023/01/13 02:05:38;;;;;;;33.40;5.32;;;7.70;1.00;;;;;;5016503;28;20045;-67
2023/01/13 02:08:04;;;;;;;45.97;6.35;;;7.70;1.00;;;;;;5017523;28;20080;-65
2023/01/13 02:10:31;;;;;;;44.15;6.90;;;7.70;1.00;;;;;;5016554;28;20045;-66
2023/01/13 02:13:00;;;;;;;31.83;5.35;;;7.70;1.00;;;;;;5000664;28;20390;-65
2023/01/13 02:15:31;;;;;;;42.28;5.95;;;7.60;5.80;;;;;;5017823;28;20449;-65
2023/01/13 02:18:11;;;;;;;40.83;5.68;;;7.70;1.00;;;;;;5015962;28;20562;-66
2023/01/13 02:20:45;;;;;;;42.33;6.45;;;7.60;1.00;;;;;;5000442;28;20047;-65
2023/01/13 02:26:13;;;;;;;37.83;5.60;;;7.70;1.00;;;;;;5025449;28;20544;-65
2023/01/13 02:31:41;;;;;;;48.25;6.78;;;7.70;1.00;;;;;;5036973;28;20044;-65
2023/01/13 02:34:10;;;;;;;35.20;5.53;;;7.70;1.00;;;;;;5037456;28;20494;-64
2023/01/13 02:36:56;;;;;;;48.53;7.00;;;7.70;1.00;;;;;;5018929;28;20449;-64
2023/01/13 02:39:32;;;;;;;40.67;5.85;;;7.70;1.00;;;;;;5037741;28;20041;-64
2023/01/13 02:45:05;;;;;;;38.92;5.72;;;7.70;22.20;;;;;;5038154;28;20068;-65
2023/01/13 02:47:36;;;;;;;41.47;6.57;;;7.70;1.00;;;;;;5019281;28;20098;-64
2023/01/13 02:50:09;;;;;;;41.05;5.85;;;7.60;1.00;;;;;;5018615;28;20504;-65
2023/01/13 02:52:40;;;;;;;42.63;6.00;;;7.70;1.00;;;;;;5018970;28;20037;-64
2023/01/13 02:55:11;;;;;;;36.45;4.70;;;7.70;1.00;;;;;;5038075;28;20076;-64
2023/01/13 02:57:38;;;;;;;46.05;6.00;;;7.70;1.00;;;;;;5018938;28;20037;-64
2023/01/13 03:00:07;;;;;;;37.10;5.82;;;7.70;24.80;;;;;;5019429;28;20060;-64
2023/01/13 03:02:33;;;;;;;27.65;5.03;;;7.80;1.00;;;;;;5002475;28;20037;-64
2023/01/13 03:04:59;;;;;;;40.65;6.03;;;7.80;1.00;;;;;;5020005;28;20070;-64
2023/01/13 03:08:02;;;;;;;37.50;5.22;;;7.70;19.70;;;;;;5036239;28;20434;-64
2023/01/13 03:10:46;;;;;;;43.33;5.72;;;7.70;1.00;;;;;;5036875;28;20391;-63
2023/01/13 03:13:29;;;;;;;35.35;5.38;;;7.70;1.00;;;;;;5036631;28;20056;-64
2023/01/13 03:16:04;;;;;;;38.08;5.40;;;7.70;1.00;;;;;;5021928;28;20075;-64
2023/01/13 03:18:44;;;;;;;43.97;6.20;;;7.60;9.50;;;;;;5041247;28;20036;-64
2023/01/13 03:21:33;;;;;;;39.58;5.85;;;7.70;2.80;;;;;;5041368;28;20479;-64
2023/01/13 03:24:24;;;;;;;40.53;5.50;;;7.70;1.00;;;;;;5022872;28;20503;-64
2023/01/13 03:27:15;;;;;;;37.85;5.68;;;7.80;1.00;;;;;;5022359;28;20073;-64
2023/01/13 03:30:03;;;;;;;40.53;5.22;;;7.80;1.00;;;;;;5021755;28;20721;-64
2023/01/13 03:32:36;;;;;;;30.67;4.53;;;7.80;1.00;;;;;;5039816;28;20049;-65
2023/01/13 03:35:02;;;;;;;38.58;5.30;;;7.90;1.00;;;;;;5022429;28;20227;-64
2023/01/13 03:37:33;;;;;;;40.72;6.20;;;7.90;1.00;;;;;;5041607;28;20419;-65
2023/01/13 03:40:04;;;;;;;33.40;5.25;;;7.80;1.00;;;;;;5022522;28;20033;-64
2023/01/13 03:42:33;;;;;;;34.22;4.65;;;7.80;1.00;;;;;;5041225;28;20043;-64
2023/01/13 03:45:08;;;;;;;40.30;5.05;;;7.90;1.00;;;;;;5022828;28;20399;-64
2023/01/13 03:47:34;;;;;;;33.22;4.90;;;7.80;1.00;;;;;;5041058;28;20441;-64
2023/01/13 03:50:09;;;;;;;34.67;4.93;;;7.80;1.00;;;;;;5022681;28;20074;-64
2023/01/13 03:53:01;;;;;;;35.78;5.03;;;7.70;1.00;;;;;;5039006;28;20041;-64
2023/01/13 03:55:32;;;;;;;28.38;4.07;;;7.80;1.00;;;;;;5039965;28;20398;-65
2023/01/13 03:58:09;;;;;;;36.30;5.15;;;7.80;1.00;;;;;;4995166;28;20045;-64
2023/01/13 04:00:54;;;;;;;31.42;3.92;;;7.80;1.00;;;;;;5022931;28;20041;-65
2023/01/13 04:03:41;;;;;;;34.70;4.50;;;7.90;1.00;;;;;;5039663;28;20044;-65
2023/01/13 04:06:35;;;;;;;32.70;4.82;;;7.90;1.00;;;;;;5040952;28;20525;-65
2023/01/13 04:09:29;;;;;;;30.92;4.13;;;7.90;1.00;;;;;;5011160;28;20057;-65
2023/01/13 04:12:16;;;;;;;26.98;4.05;;;7.90;1.00;;;;;;5005895;28;20398;-63
2023/01/13 04:14:42;;;;;;;31.83;4.35;;;7.90;1.00;;;;;;5040924;28;20063;-64
2023/01/13 04:17:08;;;;;;;29.20;4.20;;;7.90;1.00;;;;;;5039094;28;20045;-65
2023/01/13 04:19:34;;;;;;;32.40;4.07;;;7.90;1.00;;;;;;5039684;28;20128;-64
2023/01/13 04:21:59;;;;;;;32.75;4.50;;;7.80;1.00;;;;;;5021781;28;20234;-64
2023/01/13 04:24:25;;;;;;;39.40;4.97;;;7.80;1.00;;;;;;5021115;28;20167;-64
2023/01/13 04:26:51;;;;;;;37.67;5.65;;;7.90;1.00;;;;;;5018152;28;20062;-65
2023/01/13 04:29:17;;;;;;;33.10;4.35;;;7.80;1.00;;;;;;5002955;28;20052;-65
2023/01/13 04:31:43;;;;;;;32.80;4.05;;;7.70;1.00;;;;;;5017709;28;20041;-64
2023/01/13 04:34:11;;;;;;;34.30;4.30;;;7.80;1.00;;;;;;5020730;28;20041;-63
2023/01/13 04:36:40;;;;;;;32.30;5.15;;;7.70;1.00;;;;;;5020522;28;20076;-64
2023/01/13 04:39:06;;;;;;;36.15;5.00;;;7.60;1.00;;;;;;5018842;28;20053;-63
2023/01/13 04:41:56;;;;;;;38.55;5.03;;;7.70;1.00;;;;;;5018533;28;20513;-63
2023/01/13 04:44:17;;;;;;;34.15;4.72;;;7.70;2.90;;;;;;5020094;28;20076;-63
2023/01/13 04:46:43;;;;;;;41.70;5.93;;;7.70;1.00;;;;;;5021099;28;20526;-64
2023/01/13 04:49:08;;;;;;;31.13;4.90;;;7.60;11.70;;;;;;5019125;28;20039;-64
2023/01/13 04:51:34;;;;;;;34.00;5.35;;;7.60;3.30;;;;;;5018921;28;20034;-64
2023/01/13 04:53:59;;;;;;;25.83;4.00;;;7.60;34.00;;;;;;5020284;28;20305;-64
2023/01/13 04:56:25;;;;;;;45.97;5.65;;;7.70;45.40;;;;;;5019526;28;20458;-64
2023/01/13 04:58:51;;;;;;;42.30;5.70;;;7.80;23.70;;;;;;5017229;28;20043;-64
2023/01/13 05:01:16;;;;;;;39.58;5.95;;;7.80;37.10;;;;;;4994004;28;20033;-63
2023/01/13 05:03:42;;;;;;;37.97;5.57;;;7.80;29.30;;;;;;5019383;28;20045;-63
2023/01/13 05:06:08;;;;;;;30.55;4.60;;;7.90;1.00;;;;;;5017623;28;20034;-64
2023/01/13 05:08:33;;;;;;;37.80;5.85;;;7.90;1.00;;;;;;5023701;28;21154;-64
2023/01/13 05:11:00;;;;;;;40.30;5.57;;;8.00;2.30;;;;;;5017038;28;20128;-64
2023/01/13 05:18:55;;;;;;;30.50;4.28;;;8.00;1.00;;;;;;5016462;28;20546;-65
2023/01/13 05:26:51;;;;;;;35.88;5.22;;;8.20;1.00;;;;;;5013459;28;20095;-65
2023/01/13 05:29:19;;;;;;;34.13;5.00;;;8.20;1.00;;;;;;4996917;28;20470;-64
2023/01/13 05:31:45;;;;;;;31.25;4.32;;;8.20;1.00;;;;;;4989610;28;20362;-63
2023/01/13 05:34:11;;;;;;;31.55;4.30;;;8.20;99.90;;;;;;4955054;28;20495;-63
2023/01/13 05:36:36;;;;;;;29.52;3.50;;;8.20;1.00;;;;;;4986777;28;20042;-63
2023/01/13 05:39:04;;;;;;;27.35;4.13;;;8.30;1.00;;;;;;4995790;28;20095;-64
2023/01/13 05:44:14;;;;;;;25.92;3.97;;;8.30;99.90;;;;;;4996631;28;20453;-64
2023/01/13 05:46:40;;;;;;;35.83;4.00;;;8.40;99.90;;;;;;4955483;28;20042;-65
2023/01/13 05:49:06;;;;;;;31.88;4.15;;;8.40;99.90;;;;;;4985403;28;20618;-64
2023/01/13 05:51:32;;;;;;;29.50;4.25;;;8.50;99.90;;;;;;4995289;28;20272;-65
2023/01/13 05:53:58;;;;;;;26.23;3.67;;;8.50;99.90;;;;;;4996188;28;20054;-65
2023/01/13 05:56:23;;;;;;;25.73;3.97;;;8.50;99.90;;;;;;5019412;28;20052;-65
2023/01/13 05:58:49;;;;;;;36.08;4.50;;;8.40;99.90;;;;;;4997562;28;20034;-64
2023/01/13 06:01:15;;;;;;;26.40;4.03;;;8.40;99.90;;;;;;4969221;28;20153;-64
2023/01/13 06:03:40;;;;;;;28.65;4.10;;;8.40;99.90;;;;;;4973619;28;20053;-64
2023/01/13 06:06:07;;;;;;;34.70;4.53;;;8.40;99.90;;;;;;4985501;28;20492;-65
2023/01/13 06:08:33;;;;;;;33.83;4.28;;;8.50;99.90;;;;;;4980573;28;20121;-65
2023/01/13 06:10:59;;;;;;;32.03;4.15;;;8.50;99.90;;;;;;4997512;28;20042;-66
2023/01/13 06:13:25;;;;;;;33.28;4.65;;;8.50;99.90;;;;;;4987122;28;20100;-65
2023/01/13 06:15:50;;;;;;;29.73;4.38;;;8.40;99.90;;;;;;4996033;28;20041;-66
2023/01/13 06:18:16;;;;;;;27.33;4.28;;;8.50;99.90;;;;;;4995426;28;20599;-67
2023/01/13 06:20:42;;;;;;;28.25;4.20;;;8.50;99.90;;;;;;4979937;28;20593;-66
2023/01/13 06:23:10;;;;;;;23.65;4.05;;;8.50;99.90;;;;;;4980599;28;20049;-65
2023/01/13 06:25:59;;;;;;;31.23;4.32;;;8.40;99.90;;;;;;4978478;28;20049;-65
2023/01/13 06:28:24;;;;;;;34.42;3.92;;;8.40;99.90;;;;;;5008322;28;20099;-66
2023/01/13 06:30:58;;;;;;;27.13;4.00;;;8.40;99.90;;;;;;5008218;28;20386;-65
2023/01/13 06:33:32;;;;;;;28.73;4.93;;;8.30;99.90;;;;;;5036743;28;20044;-65
2023/01/13 06:36:03;;;;;;;29.50;4.15;;;8.30;99.90;;;;;;5019341;28;20056;-65
2023/01/13 06:38:32;;;;;;;25.70;3.60;;;8.30;99.90;;;;;;5019401;28;20049;-65
2023/01/13 06:40:58;;;;;;;33.30;4.60;;;8.30;1.00;;;;;;5036173;28;20542;-66
2023/01/13 06:43:24;;;;;;;26.90;3.95;;;8.30;1.00;;;;;;5036335;28;20059;-66
2023/01/13 06:45:52;;;;;;;30.45;4.15;;;8.30;99.90;;;;;;5002906;28;20040;-66
2023/01/13 06:48:21;;;;;;;29.60;4.35;;;8.20;1.00;;;;;;5000274;28;20468;-65
2023/01/13 06:50:47;;;;;;;27.73;4.03;;;8.20;1.00;;;;;;5018904;28;20205;-65
2023/01/13 06:53:13;;;;;;;30.98;4.90;;;8.10;1.00;;;;;;5017002;28;20049;-65
2023/01/13 06:55:38;;;;;;;32.63;3.97;;;8.10;1.00;;;;;;5037340;28;20044;-65
2023/01/13 06:58:04;;;;;;;23.42;3.47;;;8.10;1.00;;;;;;5017871;28;20045;-65
2023/01/13 07:00:31;;;;;;;28.58;4.53;;;8.00;2.10;;;;;;5019319;28;20120;-66
2023/01/13 07:03:11;;;;;;;27.92;3.65;;;7.90;23.00;;;;;;5036374;28;20145;-64
2023/01/13 07:05:37;;;;;;;26.83;3.75;;;7.80;37.50;;;;;;5018657;28;20057;-64
2023/01/13 07:08:03;;;;;;;29.08;3.85;;;7.60;99.90;;;;;;5018731;28;21207;-65
2023/01/13 07:10:30;;;;;;;28.48;3.78;;;7.50;99.90;;;;;;5019509;28;20037;-63
2023/01/13 07:15:58;;;;;;;24.48;3.25;;;7.40;99.90;;;;;;5016566;28;20048;-64
2023/01/13 07:18:26;;;;;;;29.85;3.42;;;7.40;99.90;;;;;;5035329;28;20139;-63
2023/01/13 07:20:53;;;;;;;35.13;4.35;;;7.40;99.90;;;;;;5021533;28;20418;-64
2023/01/13 07:23:19;;;;;;;23.38;3.30;;;7.30;99.90;;;;;;5022037;28;20049;-64
2023/01/13 07:25:45;;;;;;;24.25;3.13;;;7.20;99.90;;;;;;5039547;28;20115;-64
2023/01/13 07:28:11;;;;;;;33.40;3.88;;;7.30;99.90;;;;;;4988663;28;20088;-64
2023/01/13 07:30:37;;;;;;;27.08;3.45;;;7.10;99.90;;;;;;5022356;28;20169;-64
2023/01/13 07:33:03;;;;;;;31.70;3.97;;;7.00;99.90;;;;;;5054106;28;20151;-64
2023/01/13 07:35:29;;;;;;;31.88;4.35;;;7.20;99.90;;;;;;5018867;28;20179;-64
2023/01/13 07:37:55;;;;;;;22.00;2.38;;;7.10;99.90;;;;;;5020767;28;20589;-64
2023/01/13 07:40:21;;;;;;;24.70;3.47;;;7.10;99.90;;;;;;5036113;28;20108;-64
2023/01/13 07:45:30;;;;;;;28.25;3.30;;;7.00;99.90;;;;;;5036127;28;20044;-64
2023/01/13 07:47:56;;;;;;;22.83;2.97;;;6.90;99.90;;;;;;5033635;28;20045;-64
2023/01/13 07:50:22;;;;;;;18.85;2.28;;;7.10;1.00;;;;;;5040636;28;20544;-63
2023/01/13 07:52:49;;;;;;;23.77;2.83;;;6.90;1.00;;;;;;5037419;28;20040;-64
2023/01/13 07:55:15;;;;;;;26.35;2.92;;;6.90;99.90;;;;;;5019864;28;20029;-63
2023/01/13 07:57:41;;;;;;;20.92;2.53;;;7.10;99.90;;;;;;4988143;28;20041;-63
2023/01/13 08:00:07;;;;;;;22.90;3.25;;;6.90;99.90;;;;;;4992245;28;20132;-63
2023/01/13 08:02:33;;;;;;;27.90;4.05;;;7.10;99.90;;;;;;5020344;28;20049;-63
2023/01/13 08:04:59;;;;;;;23.20;3.03;;;7.10;99.90;;;;;;5039002;28;20049;-65
2023/01/13 08:07:24;;;;;;;24.58;2.97;;;7.20;99.90;;;;;;5003998;28;20125;-65
2023/01/13 08:09:50;;;;;;;24.90;3.08;;;7.20;99.90;;;;;;5021070;28;20041;-65
2023/01/13 08:15:00;;;;;;;22.00;3.28;;;7.30;99.90;;;;;;5020735;28;20483;-65
2023/01/13 08:17:26;;;;;;;24.50;3.05;;;7.10;99.90;;;;;;5004244;28;20048;-65
2023/01/13 08:19:51;;;;;;;26.33;3.80;;;7.30;99.90;;;;;;5019809;28;20790;-65
2023/01/13 08:22:17;;;;;;;21.10;3.20;;;7.30;99.90;;;;;;5022120;28;20120;-65
2023/01/13 08:24:43;;;;;;;29.52;4.18;;;7.30;99.90;;;;;;5010150;28;20048;-65
2023/01/13 08:27:08;;;;;;;27.08;3.17;;;7.30;99.90;;;;;;4990415;28;20051;-63
2023/01/13 08:29:34;;;;;;;25.60;3.53;;;7.40;99.90;;;;;;5022451;28;20123;-63
2023/01/13 08:32:00;;;;;;;26.83;3.42;;;7.40;99.90;;;;;;5039429;28;20133;-64
2023/01/13 08:34:25;;;;;;;27.60;4.28;;;7.50;99.90;;;;;;5031351;28;20075;-64
2023/01/13 08:36:51;;;;;;;26.15;3.42;;;7.60;99.90;;;;;;5006983;28;20243;-65
2023/01/13 08:39:17;;;;;;;26.92;3.33;;;7.50;99.90;;;;;;4999084;28;20517;-64
2023/01/13 08:41:55;;;;;;;31.13;3.85;;;7.50;99.90;;;;;;5020190;28;20044;-65
2023/01/13 08:44:27;;;;;;;32.78;4.18;;;7.40;99.90;;;;;;5020629;28;20112;-65
2023/01/13 08:46:53;;;;;;;33.15;4.18;;;7.40;99.90;;;;;;5039133;28;20106;-63
2023/01/13 08:49:19;;;;;;;33.72;3.55;;;7.60;99.90;;;;;;5039108;28;20048;-65
2023/01/13 08:51:45;;;;;;;19.95;2.42;;;7.40;99.90;;;;;;5010718;28;20561;-65
2023/01/13 08:54:11;;;;;;;31.77;4.28;;;7.50;99.90;;;;;;5009665;28;20048;-65
2023/01/13 08:56:37;;;;;;;31.15;4.00;;;7.50;99.90;;;;;;5038941;28;20045;-65
2023/01/13 08:59:03;;;;;;;24.45;4.22;;;7.60;99.90;;;;;;5040160;28;20041;-64
2023/01/13 09:01:29;;;;;;;26.48;3.65;;;7.70;99.90;;;;;;4986934;28;20060;-65
2023/01/13 09:03:55;;;;;;;27.83;3.85;;;7.70;99.90;;;;;;5021716;28;20123;-64
2023/01/13 09:06:20;;;;;;;33.83;5.03;;;7.60;99.90;;;;;;5020877;28;20068;-65
2023/01/13 09:08:46;;;;;;;31.48;4.00;;;7.50;99.90;;;;;;5020291;28;20052;-64
2023/01/13 09:14:07;;;;;;;29.90;4.15;;;7.70;99.90;;;;;;4987179;28;20048;-64
2023/01/13 09:16:32;;;;;;;34.78;4.80;;;7.60;99.90;;;;;;5018367;28;20063;-65
2023/01/13 09:18:58;;;;;;;34.53;4.15;;;7.60;99.90;;;;;;5005513;28;20666;-63
2023/01/13 09:21:24;;;;;;;31.83;5.10;;;7.60;99.90;;;;;;5018564;28;20697;-64
2023/01/13 09:23:50;;;;;;;29.88;4.13;;;7.40;99.90;;;;;;5037640;28;20101;-64
2023/01/13 09:26:19;;;;;;;32.90;4.03;;;7.40;99.90;;;;;;5020122;28;20060;-63
2023/01/13 09:28:45;;;;;;;28.02;3.30;;;7.40;99.90;;;;;;5005008;28;20047;-64
2023/01/13 09:31:11;;;;;;;23.17;2.88;;;7.30;99.90;;;;;;5019004;28;20044;-65
2023/01/13 09:36:21;;;;;;;29.42;3.13;;;7.00;1.00;;;;;;5021338;28;20518;-65
2023/01/13 09:38:48;;;;;;;34.65;5.63;;;7.00;51.00;;;;;;4994674;28;20045;-65
2023/01/13 09:44:13;;;;;;;35.97;4.38;;;6.80;99.90;;;;;;5037889;28;20048;-66
2023/01/13 09:47:01;;;;;;;38.50;4.10;;;6.80;99.90;;;;;;5036639;28;20090;-66
2023/01/13 09:49:39;;;;;;;29.58;3.50;;;6.50;99.90;;;;;;5032901;28;20060;-65
2023/01/13 09:52:21;;;;;;;29.67;3.35;;;7.00;99.90;;;;;;5036534;28;20463;-65
2023/01/13 09:54:54;;;;;;;29.27;3.33;;;6.60;99.90;;;;;;5017094;28;20151;-65
2023/01/13 09:57:20;;;;;;;31.65;4.93;;;7.10;99.90;;;;;;5011131;28;20534;-63
2023/01/13 09:59:47;;;;;;;33.17;3.95;;;6.80;99.90;;;;;;4959751;28;20048;-64
2023/01/13 10:02:18;;;;;;;19.23;2.20;;;6.60;99.90;;;;;;5050492;28;20099;-64
2023/01/13 10:05:11;;;;;;;27.80;3.38;;;6.60;99.90;;;;;;5007962;28;20486;-63
2023/01/13 10:07:46;;;;;;;24.58;3.10;;;7.20;99.90;;;;;;5032602;28;20059;-63
2023/01/13 10:10:17;;;;;;;26.50;3.00;;;6.70;99.90;;;;;;5033016;28;20037;-64
2023/01/13 10:15:30;;;;;;;29.80;3.25;;;6.40;99.90;;;;;;5032101;28;20394;-64
2023/01/13 10:18:16;;;;;;;25.75;2.53;;;7.10;99.90;;;;;;4998150;28;20048;-63
2023/01/13 10:20:57;;;;;;;25.08;2.30;;;6.50;99.90;;;;;;5048846;28;20569;-64
2023/01/13 10:23:42;;;;;;;29.15;3.10;;;6.90;99.90;;;;;;5051441;28;20035;-67
2023/01/13 10:26:23;;;;;;;23.13;2.92;;;6.60;99.90;;;;;;5015867;28;20505;-64
2023/01/13 10:28:54;;;;;;;25.77;2.72;;;6.70;99.90;;;;;;5032732;28;20052;-64
2023/01/13 10:31:21;;;;;;;22.52;2.97;;;6.80;99.90;;;;;;5035887;28;20041;-63
2023/01/13 10:33:48;;;;;;;21.25;2.42;;;6.50;99.90;;;;;;5033247;28;20043;-64
2023/01/13 10:36:21;;;;;;;22.55;2.70;;;6.50;99.90;;;;;;5032532;28;20679;-63
2023/01/13 10:38:49;;;;;;;17.20;2.63;;;6.70;99.90;;;;;;5048852;28;20299;-65
2023/01/13 10:41:14;;;;;;;24.08;2.78;;;6.90;99.90;;;;;;5047797;28;20513;-65
2023/01/13 10:43:44;;;;;;;24.98;2.80;;;6.60;99.90;;;;;;5028827;28;20601;-64
2023/01/13 10:46:12;;;;;;;25.02;3.05;;;7.40;99.90;;;;;;5026730;28;20040;-63
2023/01/13 10:48:57;;;;;;;29.65;3.47;;;6.80;99.90;;;;;;5026223;28;20497;-65
2023/01/13 10:51:36;;;;;;;30.25;4.03;;;7.00;99.90;;;;;;5045680;28;20135;-65
2023/01/13 10:54:23;;;;;;;16.70;2.03;;;6.90;99.90;;;;;;5031776;28;20445;-64
2023/01/13 10:57:27;;;;;;;24.80;2.92;;;7.00;99.90;;;;;;5011262;28;20047;-64
2023/01/13 10:59:54;;;;;;;25.75;3.08;;;7.30;99.90;;;;;;4966829;28;20125;-65
2023/01/13 11:02:31;;;;;;;27.23;3.63;;;7.30;99.90;;;;;;5026241;28;20076;-64
2023/01/13 11:05:01;;;;;;;24.33;3.20;;;7.60;99.90;;;;;;5016954;28;20063;-65
2023/01/13 11:07:37;;;;;;;28.95;3.33;;;7.30;99.90;;;;;;5040120;28;20041;-65
2023/01/13 11:10:16;;;;;;;24.38;3.40;;;7.60;99.90;;;;;;5020485;28;20052;-64
2023/01/13 11:13:07;;;;;;;16.77;2.25;;;7.20;99.90;;;;;;5044053;28;20032;-64
2023/01/13 11:15:56;;;;;;;28.73;3.42;;;7.50;99.90;;;;;;5007298;28;20079;-65
2023/01/13 11:19:00;;;;;;;22.77;3.17;;;7.40;99.90;;;;;;5014924;28;20059;-65
2023/01/13 11:21:38;;;;;;;22.45;2.85;;;7.10;99.90;;;;;;5008846;28;20068;-65
2023/01/13 11:24:35;;;;;;;21.48;2.08;;;7.30;99.90;;;;;;4951005;28;20057;-65
2023/01/13 11:27:03;;;;;;;29.70;2.78;;;7.40;99.90;;;;;;5027018;28;20140;-65
2023/01/13 11:29:32;;;;;;;25.48;3.28;;;7.20;99.90;;;;;;5043005;28;20181;-66
2023/01/13 11:32:19;;;;;;;23.33;2.70;;;7.80;99.90;;;;;;5026668;28;20067;-66
2023/01/13 11:34:51;;;;;;;23.65;2.75;;;7.70;99.90;;;;;;5046868;28;20040;-65
2023/01/13 11:37:32;;;;;;;15.98;2.00;;;7.80;99.90;;;;;;5031168;28;20113;-66
2023/01/13 11:40:08;;;;;;;21.58;2.67;;;7.50;99.90;;;;;;5016551;28;20314;-64
2023/01/13 11:42:42;;;;;;;19.30;2.65;;;7.60;99.90;;;;;;5016678;28;20048;-64
2023/01/13 11:45:29;;;;;;;22.65;2.65;;;7.60;99.90;;;;;;5032796;28;20028;-64
2023/01/13 11:48:00;;;;;;;24.38;2.67;;;7.80;99.90;;;;;;5036455;28;20095;-64
2023/01/13 11:50:53;;;;;;;22.80;3.20;;;7.80;99.90;;;;;;5053584;28;20051;-66
2023/01/13 11:53:54;;;;;;;22.98;2.58;;;8.00;99.50;;;;;;5036617;28;20481;-64
2023/01/13 11:56:57;;;;;;;19.10;2.15;;;8.00;1.00;;;;;;4956476;28;20050;-65
2023/01/13 11:59:37;;;;;;;24.98;3.03;;;8.10;1.00;;;;;;5011792;28;20037;-64
2023/01/13 12:02:41;;;;;;;23.27;3.28;;;8.00;1.00;;;;;;5019247;28;20515;-64
2023/01/13 12:05:34;;;;;;;17.15;2.30;;;8.00;99.90;;;;;;5032985;28;20102;-65
2023/01/13 12:08:19;;;;;;;24.80;2.87;;;8.00;40.70;;;;;;5035259;28;20044;-65
2023/01/13 12:11:07;;;;;;;18.02;2.42;;;8.00;67.40;;;;;;5022037;28;20294;-64
2023/01/13 12:13:55;;;;;;;21.27;2.35;;;7.80;27.10;;;;;;5033277;28;20047;-64
2023/01/13 12:16:27;;;;;;;14.90;1.85;;;7.90;55.00;;;;;;5034216;28;20611;-64
2023/01/13 12:19:12;;;;;;;16.42;1.88;;;8.10;1.00;;;;;;5051065;28;20301;-64
2023/01/13 12:21:44;;;;;;;21.50;2.17;;;7.80;99.90;;;;;;5021187;28;20040;-65
2023/01/13 12:24:51;;;;;;;19.88;2.33;;;7.60;1.00;;;;;;5038132;28;20048;-65
2023/01/13 12:27:41;;;;;;;17.13;1.60;;;7.90;4.90;;;;;;5044420;28;20133;-65
2023/01/13 12:30:26;;;;;;;21.20;2.75;;;7.20;99.90;;;;;;5057774;28;20062;-66
2023/01/13 12:32:56;;;;;;;22.45;2.78;;;7.40;99.90;;;;;;5058207;28;20284;-66
2023/01/13 12:35:36;;;;;;;17.88;2.50;;;7.20;99.90;;;;;;5040432;28;20180;-65
2023/01/13 12:38:30;;;;;;;18.85;2.10;;;7.70;99.90;;;;;;5023746;28;20041;-66
2023/01/13 12:41:30;;;;;;;16.83;1.60;;;7.30;99.90;;;;;;5023588;28;20225;-66
2023/01/13 12:46:52;;;;;;;9.85;1.25;;;7.40;99.90;;;;;;5039165;28;20055;-66
2023/01/13 12:49:29;;;;;;;7.65;0.98;;;7.40;99.90;;;;;;5057029;28;20123;-65
2023/01/13 12:51:55;;;;;;;14.18;1.75;;;7.40;8.00;;;;;;5040302;28;20154;-66
2023/01/13 12:54:52;;;;;;;17.05;1.95;;;7.40;94.20;;;;;;5058366;28;20508;-66
2023/01/13 12:57:18;;;;;;;21.17;2.60;;;7.40;66.20;;;;;;5023124;28;20606;-66
2023/01/13 13:00:04;;;;;;;17.55;1.67;;;7.70;99.90;;;;;;5039417;28;20044;-68
2023/01/13 13:02:42;;;;;;;22.33;3.00;;;7.50;99.90;;;;;;5057823;28;20044;-67
2023/01/13 13:05:14;;;;;;;20.98;2.17;;;7.50;99.90;;;;;;5039796;28;20113;-67
2023/01/13 13:07:44;;;;;;;18.85;2.17;;;7.80;99.90;;;;;;5038932;28;20131;-68
2023/01/13 13:10:26;;;;;;;18.45;2.10;;;7.50;99.90;;;;;;5056923;28;20372;-67
2023/01/13 13:13:19;;;;;;;16.58;1.92;;;7.90;99.90;;;;;;5057057;28;20108;-68
2023/01/13 13:15:47;;;;;;;18.30;1.88;;;8.00;99.90;;;;;;5039232;28;20746;-68
2023/01/13 13:18:23;;;;;;;15.75;2.38;;;7.90;99.90;;;;;;5056836;28;20284;-67
2023/01/13 13:21:00;;;;;;;17.73;1.30;;;8.20;12.30;;;;;;5038372;28;20048;-68
2023/01/13 13:23:31;;;;;;;19.23;1.95;;;8.10;99.90;;;;;;5038453;28;21146;-67
2023/01/13 13:26:23;;;;;;;13.88;1.52;;;8.10;25.40;;;;;;5038420;28;20061;-67
2023/01/13 13:29:03;;;;;;;13.45;1.10;;;7.80;99.90;;;;;;5056231;28;20052;-67
2023/01/13 13:32:02;;;;;;;14.45;1.25;;;8.10;99.90;;;;;;5038625;28;20113;-67
2023/01/13 13:34:31;;;;;;;13.82;1.40;;;8.00;99.90;;;;;;5056053;28;20580;-66
2023/01/13 13:37:29;;;;;;;17.48;1.67;;;7.90;99.90;;;;;;5037707;28;20048;-66
2023/01/13 13:48:24;;;;;;;18.88;2.33;;;8.30;99.90;;;;;;5023735;28;20424;-65
2023/01/13 13:51:00;;;;;;;13.27;1.30;;;8.30;99.90;;;;;;5037967;28;20044;-66
2023/01/13 13:53:31;;;;;;;17.70;1.60;;;8.40;99.90;;;;;;5038133;28;20040;-67
2023/01/13 13:56:00;;;;;;;13.93;1.30;;;8.40;99.90;;;;;;5037853;28;20040;-67
2023/01/13 13:58:35;;;;;;;18.38;2.10;;;8.40;99.90;;;;;;5037299;28;20696;-66
2023/01/13 14:01:05;;;;;;;14.45;1.40;;;8.30;99.90;;;;;;5054723;28;20060;-67
2023/01/13 14:03:34;;;;;;;16.25;1.85;;;8.20;99.90;;;;;;5054971;28;20812;-66
2023/01/13 14:06:05;;;;;;;17.50;1.95;;;8.30;99.90;;;;;;5055744;28;20143;-67
2023/01/13 14:08:37;;;;;;;12.75;1.88;;;8.30;99.90;;;;;;5005699;28;20816;-67
2023/01/13 14:11:26;;;;;;;12.23;1.40;;;8.40;99.90;;;;;;5036979;28;20131;-67
2023/01/13 14:14:24;;;;;;;12.75;1.23;;;8.30;99.90;;;;;;5056318;28;20036;-67